sensor_id;sensor_type;location;lat;lon;timestamp;temperature;humidity
68746;SHT31;66104;45.456;11.064;2022-12-18T00:00:24;6.88;76.45
68746;SHT31;66104;45.456;11.064;2022-12-18T00:03:01;6.94;76.16
68746;SHT31;66104;45.456;11.064;2022-12-18T00:05:45;6.91;76.09
68746;SHT31;66104;45.456;11.064;2022-12-18T00:08:22;6.90;75.86
68746;SHT31;66104;45.456;11.064;2022-12-18T00:11:04;6.91;75.76
68746;SHT31;66104;45.456;11.064;2022-12-18T00:13:44;6.91;75.77
68746;SHT31;66104;45.456;11.064;2022-12-18T00:16:21;6.88;75.73
68746;SHT31;66104;45.456;11.064;2022-12-18T00:19:02;6.87;75.98
68746;SHT31;66104;45.456;11.064;2022-12-18T00:21:42;6.84;76.25
68746;SHT31;66104;45.456;11.064;2022-12-18T00:24:20;6.86;76.32
68746;SHT31;66104;45.456;11.064;2022-12-18T00:26:57;6.88;76.31
68746;SHT31;66104;45.456;11.064;2022-12-18T00:29:34;6.88;76.28
68746;SHT31;66104;45.456;11.064;2022-12-18T00:32:11;6.87;76.34
68746;SHT31;66104;45.456;11.064;2022-12-18T00:34:46;6.89;76.38
68746;SHT31;66104;45.456;11.064;2022-12-18T00:37:23;6.93;76.30
68746;SHT31;66104;45.456;11.064;2022-12-18T00:40:00;6.95;76.23
68746;SHT31;66104;45.456;11.064;2022-12-18T00:42:42;6.96;76.32
68746;SHT31;66104;45.456;11.064;2022-12-18T00:45:29;6.99;76.41
68746;SHT31;66104;45.456;11.064;2022-12-18T00:48:05;7.03;76.30
68746;SHT31;66104;45.456;11.064;2022-12-18T00:50:43;7.04;76.24
68746;SHT31;66104;45.456;11.064;2022-12-18T00:53:20;7.04;76.36
68746;SHT31;66104;45.456;11.064;2022-12-18T00:55:57;7.02;76.34
68746;SHT31;66104;45.456;11.064;2022-12-18T00:58:33;6.97;76.25
68746;SHT31;66104;45.456;11.064;2022-12-18T01:01:14;6.87;76.25
68746;SHT31;66104;45.456;11.064;2022-12-18T01:03:51;6.78;76.43
68746;SHT31;66104;45.456;11.064;2022-12-18T01:06:28;6.71;76.71
68746;SHT31;66104;45.456;11.064;2022-12-18T01:09:05;6.65;76.88
68746;SHT31;66104;45.456;11.064;2022-12-18T01:11:41;6.64;77.11
68746;SHT31;66104;45.456;11.064;2022-12-18T01:14:17;6.66;77.17
68746;SHT31;66104;45.456;11.064;2022-12-18T01:16:54;6.72;77.24
68746;SHT31;66104;45.456;11.064;2022-12-18T01:19:34;6.75;77.23
68746;SHT31;66104;45.456;11.064;2022-12-18T01:22:11;6.76;77.30
68746;SHT31;66104;45.456;11.064;2022-12-18T01:24:48;6.76;77.36
68746;SHT31;66104;45.456;11.064;2022-12-18T01:27:25;6.76;77.46
68746;SHT31;66104;45.456;11.064;2022-12-18T01:30:01;6.74;77.56
68746;SHT31;66104;45.456;11.064;2022-12-18T01:35:57;6.77;77.75
68746;SHT31;66104;45.456;11.064;2022-12-18T01:38:34;6.81;77.60
68746;SHT31;66104;45.456;11.064;2022-12-18T01:41:10;6.86;77.60
68746;SHT31;66104;45.456;11.064;2022-12-18T01:43:51;6.89;77.54
68746;SHT31;66104;45.456;11.064;2022-12-18T01:46:27;6.92;77.33
68746;SHT31;66104;45.456;11.064;2022-12-18T01:49:04;6.95;77.31
68746;SHT31;66104;45.456;11.064;2022-12-18T01:51:41;6.96;77.51
68746;SHT31;66104;45.456;11.064;2022-12-18T01:54:19;6.97;77.68
68746;SHT31;66104;45.456;11.064;2022-12-18T01:56:55;6.95;77.81
68746;SHT31;66104;45.456;11.064;2022-12-18T01:59:33;6.92;77.99
68746;SHT31;66104;45.456;11.064;2022-12-18T02:02:12;6.90;78.00
68746;SHT31;66104;45.456;11.064;2022-12-18T02:04:50;6.95;77.96
68746;SHT31;66104;45.456;11.064;2022-12-18T02:07:28;6.98;77.69
68746;SHT31;66104;45.456;11.064;2022-12-18T02:10:15;7.02;77.61
68746;SHT31;66104;45.456;11.064;2022-12-18T02:13:02;7.09;77.42
68746;SHT31;66104;45.456;11.064;2022-12-18T02:15:54;7.13;77.35
68746;SHT31;66104;45.456;11.064;2022-12-18T02:18:45;7.17;77.24
68746;SHT31;66104;45.456;11.064;2022-12-18T02:21:31;7.17;77.00
68746;SHT31;66104;45.456;11.064;2022-12-18T02:24:23;7.17;76.92
68746;SHT31;66104;45.456;11.064;2022-12-18T02:27:10;7.20;76.68
68746;SHT31;66104;45.456;11.064;2022-12-18T02:29:50;7.27;76.54
68746;SHT31;66104;45.456;11.064;2022-12-18T02:32:30;7.32;76.42
68746;SHT31;66104;45.456;11.064;2022-12-18T02:35:11;7.35;76.37
68746;SHT31;66104;45.456;11.064;2022-12-18T02:37:55;7.40;76.21
68746;SHT31;66104;45.456;11.064;2022-12-18T02:40:35;7.40;76.24
68746;SHT31;66104;45.456;11.064;2022-12-18T02:43:16;7.37;76.79
68746;SHT31;66104;45.456;11.064;2022-12-18T02:45:54;7.34;77.24
68746;SHT31;66104;45.456;11.064;2022-12-18T02:48:45;7.32;77.52
68746;SHT31;66104;45.456;11.064;2022-12-18T02:51:27;7.37;77.05
68746;SHT31;66104;45.456;11.064;2022-12-18T02:54:18;7.42;76.67
68746;SHT31;66104;45.456;11.064;2022-12-18T02:57:18;7.41;77.19
68746;SHT31;66104;45.456;11.064;2022-12-18T03:00:07;7.29;77.34
68746;SHT31;66104;45.456;11.064;2022-12-18T03:02:48;7.18;77.58
68746;SHT31;66104;45.456;11.064;2022-12-18T03:05:31;7.13;77.78
68746;SHT31;66104;45.456;11.064;2022-12-18T03:08:16;7.06;77.95
68746;SHT31;66104;45.456;11.064;2022-12-18T03:10:58;7.04;78.18
68746;SHT31;66104;45.456;11.064;2022-12-18T03:13:40;7.06;78.40
68746;SHT31;66104;45.456;11.064;2022-12-18T03:16:23;7.10;78.47
68746;SHT31;66104;45.456;11.064;2022-12-18T03:19:03;7.12;78.41
68746;SHT31;66104;45.456;11.064;2022-12-18T03:21:50;7.11;78.50
68746;SHT31;66104;45.456;11.064;2022-12-18T03:24:43;7.11;78.57
68746;SHT31;66104;45.456;11.064;2022-12-18T03:27:24;7.12;78.56
68746;SHT31;66104;45.456;11.064;2022-12-18T03:30:07;7.11;78.66
68746;SHT31;66104;45.456;11.064;2022-12-18T03:32:47;7.07;78.60
68746;SHT31;66104;45.456;11.064;2022-12-18T03:35:30;7.01;78.67
68746;SHT31;66104;45.456;11.064;2022-12-18T03:38:14;6.99;78.71
68746;SHT31;66104;45.456;11.064;2022-12-18T03:40:56;7.02;78.79
68746;SHT31;66104;45.456;11.064;2022-12-18T03:44:07;7.05;78.81
68746;SHT31;66104;45.456;11.064;2022-12-18T03:47:01;7.07;78.82
68746;SHT31;66104;45.456;11.064;2022-12-18T03:49:46;7.11;78.77
68746;SHT31;66104;45.456;11.064;2022-12-18T03:52:41;7.09;78.84
68746;SHT31;66104;45.456;11.064;2022-12-18T03:55:23;7.09;78.96
68746;SHT31;66104;45.456;11.064;2022-12-18T03:58:05;7.11;78.83
68746;SHT31;66104;45.456;11.064;2022-12-18T04:00:55;7.08;78.72
68746;SHT31;66104;45.456;11.064;2022-12-18T04:03:36;7.07;78.83
68746;SHT31;66104;45.456;11.064;2022-12-18T04:06:18;7.09;78.83
68746;SHT31;66104;45.456;11.064;2022-12-18T04:08:55;7.10;78.53
68746;SHT31;66104;45.456;11.064;2022-12-18T04:11:36;7.08;78.73
68746;SHT31;66104;45.456;11.064;2022-12-18T04:14:14;7.02;79.05
68746;SHT31;66104;45.456;11.064;2022-12-18T04:16:54;6.98;79.28
68746;SHT31;66104;45.456;11.064;2022-12-18T04:19:33;7.02;78.94
68746;SHT31;66104;45.456;11.064;2022-12-18T04:22:11;7.06;78.47
68746;SHT31;66104;45.456;11.064;2022-12-18T04:24:51;7.11;78.33
68746;SHT31;66104;45.456;11.064;2022-12-18T04:27:33;7.15;78.21
68746;SHT31;66104;45.456;11.064;2022-12-18T04:30:12;7.22;78.15
68746;SHT31;66104;45.456;11.064;2022-12-18T04:32:50;7.28;78.21
68746;SHT31;66104;45.456;11.064;2022-12-18T04:35:27;7.28;78.49
68746;SHT31;66104;45.456;11.064;2022-12-18T04:38:05;7.24;78.82
68746;SHT31;66104;45.456;11.064;2022-12-18T04:40:42;7.27;78.92
68746;SHT31;66104;45.456;11.064;2022-12-18T04:43:23;7.33;78.81
68746;SHT31;66104;45.456;11.064;2022-12-18T04:46:05;7.37;78.73
68746;SHT31;66104;45.456;11.064;2022-12-18T04:48:44;7.39;78.87
68746;SHT31;66104;45.456;11.064;2022-12-18T04:51:22;7.37;78.83
68746;SHT31;66104;45.456;11.064;2022-12-18T04:53:59;7.35;78.78
68746;SHT31;66104;45.456;11.064;2022-12-18T04:56:36;7.39;78.67
68746;SHT31;66104;45.456;11.064;2022-12-18T04:59:14;7.39;78.60
68746;SHT31;66104;45.456;11.064;2022-12-18T05:01:52;7.41;78.49
68746;SHT31;66104;45.456;11.064;2022-12-18T05:04:29;7.46;78.15
68746;SHT31;66104;45.456;11.064;2022-12-18T05:07:06;7.47;78.14
68746;SHT31;66104;45.456;11.064;2022-12-18T05:09:44;7.48;78.13
68746;SHT31;66104;45.456;11.064;2022-12-18T05:12:21;7.49;78.14
68746;SHT31;66104;45.456;11.064;2022-12-18T05:14:58;7.48;78.19
68746;SHT31;66104;45.456;11.064;2022-12-18T05:17:42;7.44;78.33
68746;SHT31;66104;45.456;11.064;2022-12-18T05:20:19;7.38;78.55
68746;SHT31;66104;45.456;11.064;2022-12-18T05:22:57;7.38;78.66
68746;SHT31;66104;45.456;11.064;2022-12-18T05:25:33;7.39;78.60
68746;SHT31;66104;45.456;11.064;2022-12-18T05:28:11;7.38;78.60
68746;SHT31;66104;45.456;11.064;2022-12-18T05:30:49;7.37;78.72
68746;SHT31;66104;45.456;11.064;2022-12-18T05:33:28;7.35;78.82
68746;SHT31;66104;45.456;11.064;2022-12-18T05:36:07;7.35;78.88
68746;SHT31;66104;45.456;11.064;2022-12-18T05:38:44;7.35;78.92
68746;SHT31;66104;45.456;11.064;2022-12-18T05:41:21;7.35;78.94
68746;SHT31;66104;45.456;11.064;2022-12-18T05:43:59;7.38;78.93
68746;SHT31;66104;45.456;11.064;2022-12-18T05:46:37;7.44;78.77
68746;SHT31;66104;45.456;11.064;2022-12-18T05:49:13;7.49;78.53
68746;SHT31;66104;45.456;11.064;2022-12-18T05:51:50;7.48;78.45
68746;SHT31;66104;45.456;11.064;2022-12-18T05:54:28;7.43;78.60
68746;SHT31;66104;45.456;11.064;2022-12-18T05:57:05;7.40;78.67
68746;SHT31;66104;45.456;11.064;2022-12-18T05:59:42;7.39;78.74
68746;SHT31;66104;45.456;11.064;2022-12-18T06:02:18;7.37;78.91
68746;SHT31;66104;45.456;11.064;2022-12-18T06:04:55;7.39;78.93
68746;SHT31;66104;45.456;11.064;2022-12-18T06:07:32;7.43;78.84
68746;SHT31;66104;45.456;11.064;2022-12-18T06:10:09;7.47;78.78
68746;SHT31;66104;45.456;11.064;2022-12-18T06:12:46;7.46;78.80
68746;SHT31;66104;45.456;11.064;2022-12-18T06:15:24;7.46;78.81
68746;SHT31;66104;45.456;11.064;2022-12-18T06:18:01;7.48;78.73
68746;SHT31;66104;45.456;11.064;2022-12-18T06:20:40;7.46;78.70
68746;SHT31;66104;45.456;11.064;2022-12-18T06:23:16;7.46;78.72
68746;SHT31;66104;45.456;11.064;2022-12-18T06:25:53;7.44;78.75
68746;SHT31;66104;45.456;11.064;2022-12-18T06:28:34;7.45;78.80
68746;SHT31;66104;45.456;11.064;2022-12-18T06:31:12;7.45;78.80
68746;SHT31;66104;45.456;11.064;2022-12-18T06:33:49;7.46;78.85
68746;SHT31;66104;45.456;11.064;2022-12-18T06:36:25;7.47;78.89
68746;SHT31;66104;45.456;11.064;2022-12-18T06:39:05;7.52;78.72
68746;SHT31;66104;45.456;11.064;2022-12-18T06:41:42;7.54;78.70
68746;SHT31;66104;45.456;11.064;2022-12-18T06:44:20;7.51;78.73
68746;SHT31;66104;45.456;11.064;2022-12-18T06:46:58;7.47;78.95
68746;SHT31;66104;45.456;11.064;2022-12-18T06:49:34;7.45;79.02
68746;SHT31;66104;45.456;11.064;2022-12-18T06:52:11;7.46;78.93
68746;SHT31;66104;45.456;11.064;2022-12-18T06:54:49;7.47;79.00
68746;SHT31;66104;45.456;11.064;2022-12-18T06:57:26;7.48;79.00
68746;SHT31;66104;45.456;11.064;2022-12-18T07:00:03;7.49;79.06
68746;SHT31;66104;45.456;11.064;2022-12-18T07:02:44;7.50;79.06
68746;SHT31;66104;45.456;11.064;2022-12-18T07:05:22;7.47;79.07
68746;SHT31;66104;45.456;11.064;2022-12-18T07:07:59;7.45;79.15
68746;SHT31;66104;45.456;11.064;2022-12-18T07:10:42;7.45;79.18
68746;SHT31;66104;45.456;11.064;2022-12-18T07:13:24;7.47;79.18
68746;SHT31;66104;45.456;11.064;2022-12-18T07:16:06;7.49;78.95
68746;SHT31;66104;45.456;11.064;2022-12-18T07:18:53;7.50;78.89
68746;SHT31;66104;45.456;11.064;2022-12-18T07:21:31;7.51;78.95
68746;SHT31;66104;45.456;11.064;2022-12-18T07:24:08;7.55;79.00
68746;SHT31;66104;45.456;11.064;2022-12-18T07:26:47;7.56;78.86
68746;SHT31;66104;45.456;11.064;2022-12-18T07:29:24;7.54;78.92
68746;SHT31;66104;45.456;11.064;2022-12-18T07:32:02;7.54;79.20
68746;SHT31;66104;45.456;11.064;2022-12-18T07:34:40;7.55;79.35
68746;SHT31;66104;45.456;11.064;2022-12-18T07:37:18;7.59;79.36
68746;SHT31;66104;45.456;11.064;2022-12-18T07:39:55;7.62;79.45
68746;SHT31;66104;45.456;11.064;2022-12-18T07:42:31;7.62;79.41
68746;SHT31;66104;45.456;11.064;2022-12-18T07:45:09;7.61;79.55
68746;SHT31;66104;45.456;11.064;2022-12-18T07:47:46;7.65;79.47
68746;SHT31;66104;45.456;11.064;2022-12-18T07:50:23;7.60;79.52
68746;SHT31;66104;45.456;11.064;2022-12-18T07:52:59;7.55;79.60
68746;SHT31;66104;45.456;11.064;2022-12-18T07:55:36;7.56;79.65
68746;SHT31;66104;45.456;11.064;2022-12-18T07:58:33;7.57;79.64
68746;SHT31;66104;45.456;11.064;2022-12-18T08:01:10;7.60;79.62
68746;SHT31;66104;45.456;11.064;2022-12-18T08:03:49;7.64;79.58
68746;SHT31;66104;45.456;11.064;2022-12-18T08:06:26;7.67;79.53
68746;SHT31;66104;45.456;11.064;2022-12-18T08:09:02;7.68;79.46
68746;SHT31;66104;45.456;11.064;2022-12-18T08:11:41;7.64;79.45
68746;SHT31;66104;45.456;11.064;2022-12-18T08:14:18;7.62;79.51
68746;SHT31;66104;45.456;11.064;2022-12-18T08:16:55;7.63;79.67
68746;SHT31;66104;45.456;11.064;2022-12-18T08:19:32;7.66;79.64
68746;SHT31;66104;45.456;11.064;2022-12-18T08:22:09;7.70;79.68
68746;SHT31;66104;45.456;11.064;2022-12-18T08:24:47;7.75;79.75
68746;SHT31;66104;45.456;11.064;2022-12-18T08:27:24;7.79;79.68
68746;SHT31;66104;45.456;11.064;2022-12-18T08:30:02;7.80;79.70
68746;SHT31;66104;45.456;11.064;2022-12-18T08:32:44;7.81;79.69
68746;SHT31;66104;45.456;11.064;2022-12-18T08:35:21;7.84;79.55
68746;SHT31;66104;45.456;11.064;2022-12-18T08:38:05;7.89;79.36
68746;SHT31;66104;45.456;11.064;2022-12-18T08:40:42;7.93;79.34
68746;SHT31;66104;45.456;11.064;2022-12-18T08:43:19;7.97;79.39
68746;SHT31;66104;45.456;11.064;2022-12-18T08:46:14;7.99;79.48
68746;SHT31;66104;45.456;11.064;2022-12-18T08:48:56;8.01;79.63
68746;SHT31;66104;45.456;11.064;2022-12-18T08:51:33;8.02;79.81
68746;SHT31;66104;45.456;11.064;2022-12-18T08:54:11;8.04;79.90
68746;SHT31;66104;45.456;11.064;2022-12-18T08:56:47;8.07;79.80
68746;SHT31;66104;45.456;11.064;2022-12-18T08:59:25;8.11;79.65
68746;SHT31;66104;45.456;11.064;2022-12-18T09:02:02;8.12;79.41
68746;SHT31;66104;45.456;11.064;2022-12-18T09:04:40;8.17;79.20
68746;SHT31;66104;45.456;11.064;2022-12-18T09:07:25;8.20;78.88
68746;SHT31;66104;45.456;11.064;2022-12-18T09:10:01;8.22;78.65
68746;SHT31;66104;45.456;11.064;2022-12-18T09:12:42;8.27;78.51
68746;SHT31;66104;45.456;11.064;2022-12-18T09:15:20;8.29;78.20
68746;SHT31;66104;45.456;11.064;2022-12-18T09:17:57;8.30;77.88
68746;SHT31;66104;45.456;11.064;2022-12-18T09:20:34;8.31;77.68
68746;SHT31;66104;45.456;11.064;2022-12-18T09:23:10;8.34;77.44
68746;SHT31;66104;45.456;11.064;2022-12-18T09:25:48;8.41;76.97
68746;SHT31;66104;45.456;11.064;2022-12-18T09:28:30;8.46;75.42
68746;SHT31;66104;45.456;11.064;2022-12-18T09:31:08;8.50;74.70
68746;SHT31;66104;45.456;11.064;2022-12-18T09:33:49;8.51;74.63
68746;SHT31;66104;45.456;11.064;2022-12-18T09:36:28;8.52;74.40
68746;SHT31;66104;45.456;11.064;2022-12-18T09:39:05;8.56;73.99
68746;SHT31;66104;45.456;11.064;2022-12-18T09:41:44;8.58;74.20
68746;SHT31;66104;45.456;11.064;2022-12-18T09:44:26;8.61;74.20
68746;SHT31;66104;45.456;11.064;2022-12-18T09:47:13;8.62;73.73
68746;SHT31;66104;45.456;11.064;2022-12-18T09:50:00;8.63;73.20
68746;SHT31;66104;45.456;11.064;2022-12-18T09:52:59;8.66;72.44
68746;SHT31;66104;45.456;11.064;2022-12-18T09:55:45;8.69;71.85
68746;SHT31;66104;45.456;11.064;2022-12-18T09:58:27;8.69;71.42
68746;SHT31;66104;45.456;11.064;2022-12-18T10:01:11;8.68;71.03
68746;SHT31;66104;45.456;11.064;2022-12-18T10:04:08;8.66;71.07
68746;SHT31;66104;45.456;11.064;2022-12-18T10:06:48;8.67;71.07
68746;SHT31;66104;45.456;11.064;2022-12-18T10:09:39;8.68;70.87
68746;SHT31;66104;45.456;11.064;2022-12-18T10:12:26;8.68;70.92
68746;SHT31;66104;45.456;11.064;2022-12-18T10:15:15;8.68;70.16
68746;SHT31;66104;45.456;11.064;2022-12-18T10:18:03;8.66;69.87
68746;SHT31;66104;45.456;11.064;2022-12-18T10:21:05;8.68;69.85
68746;SHT31;66104;45.456;11.064;2022-12-18T10:23:51;8.76;69.77
68746;SHT31;66104;45.456;11.064;2022-12-18T10:26:44;8.87;69.52
68746;SHT31;66104;45.456;11.064;2022-12-18T10:29:21;8.93;69.20
68746;SHT31;66104;45.456;11.064;2022-12-18T10:32:00;8.96;69.24
68746;SHT31;66104;45.456;11.064;2022-12-18T10:34:38;8.97;69.42
68746;SHT31;66104;45.456;11.064;2022-12-18T10:37:28;8.96;69.15
68746;SHT31;66104;45.456;11.064;2022-12-18T10:40:08;8.95;69.47
68746;SHT31;66104;45.456;11.064;2022-12-18T10:42:55;9.01;69.52
68746;SHT31;66104;45.456;11.064;2022-12-18T10:45:49;9.08;69.59
68746;SHT31;66104;45.456;11.064;2022-12-18T10:48:52;9.14;69.01
68746;SHT31;66104;45.456;11.064;2022-12-18T10:51:32;9.21;68.95
68746;SHT31;66104;45.456;11.064;2022-12-18T10:54:14;9.21;68.93
68746;SHT31;66104;45.456;11.064;2022-12-18T10:56:52;9.24;68.88
68746;SHT31;66104;45.456;11.064;2022-12-18T11:03:07;9.20;68.13
68746;SHT31;66104;45.456;11.064;2022-12-18T11:06:08;9.19;68.29
68746;SHT31;66104;45.456;11.064;2022-12-18T11:08:57;9.24;68.32
68746;SHT31;66104;45.456;11.064;2022-12-18T11:11:47;9.32;68.27
68746;SHT31;66104;45.456;11.064;2022-12-18T11:14:28;9.40;68.12
68746;SHT31;66104;45.456;11.064;2022-12-18T11:17:19;9.49;67.72
68746;SHT31;66104;45.456;11.064;2022-12-18T11:20:05;9.59;67.70
68746;SHT31;66104;45.456;11.064;2022-12-18T11:22:59;9.69;67.62
68746;SHT31;66104;45.456;11.064;2022-12-18T11:25:49;9.76;67.32
68746;SHT31;66104;45.456;11.064;2022-12-18T11:28:34;9.81;67.10
68746;SHT31;66104;45.456;11.064;2022-12-18T11:34:03;10.01;66.21
68746;SHT31;66104;45.456;11.064;2022-12-18T11:36:57;10.12;65.36
68746;SHT31;66104;45.456;11.064;2022-12-18T11:39:37;10.21;64.65
68746;SHT31;66104;45.456;11.064;2022-12-18T11:42:19;10.27;64.02
68746;SHT31;66104;45.456;11.064;2022-12-18T11:45:07;10.31;63.89
68746;SHT31;66104;45.456;11.064;2022-12-18T11:48:12;10.38;64.08
68746;SHT31;66104;45.456;11.064;2022-12-18T11:50:54;10.43;63.86
68746;SHT31;66104;45.456;11.064;2022-12-18T11:53:33;10.47;63.69
68746;SHT31;66104;45.456;11.064;2022-12-18T11:56:16;10.49;63.64
68746;SHT31;66104;45.456;11.064;2022-12-18T11:59:07;10.55;63.59
68746;SHT31;66104;45.456;11.064;2022-12-18T12:01:59;10.57;63.35
68746;SHT31;66104;45.456;11.064;2022-12-18T12:08:01;10.57;63.52
68746;SHT31;66104;45.456;11.064;2022-12-18T12:10:55;10.58;63.42
68746;SHT31;66104;45.456;11.064;2022-12-18T12:13:46;10.60;63.36
68746;SHT31;66104;45.456;11.064;2022-12-18T12:16:34;10.60;63.49
68746;SHT31;66104;45.456;11.064;2022-12-18T12:19:25;10.64;63.38
68746;SHT31;66104;45.456;11.064;2022-12-18T12:22:17;10.65;63.18
68746;SHT31;66104;45.456;11.064;2022-12-18T12:25:13;10.67;63.18
68746;SHT31;66104;45.456;11.064;2022-12-18T12:28:09;10.71;63.09
68746;SHT31;66104;45.456;11.064;2022-12-18T12:31:00;10.73;63.11
68746;SHT31;66104;45.456;11.064;2022-12-18T12:33:52;10.76;63.04
68746;SHT31;66104;45.456;11.064;2022-12-18T12:36:37;10.81;63.08
68746;SHT31;66104;45.456;11.064;2022-12-18T12:39:31;10.85;62.87
68746;SHT31;66104;45.456;11.064;2022-12-18T12:42:15;10.88;62.65
68746;SHT31;66104;45.456;11.064;2022-12-18T12:45:21;10.91;62.59
68746;SHT31;66104;45.456;11.064;2022-12-18T12:48:06;10.95;62.38
68746;SHT31;66104;45.456;11.064;2022-12-18T12:50:55;10.98;62.13
68746;SHT31;66104;45.456;11.064;2022-12-18T12:53:39;10.98;62.20
68746;SHT31;66104;45.456;11.064;2022-12-18T12:56:18;10.98;62.40
68746;SHT31;66104;45.456;11.064;2022-12-18T12:58:59;10.99;62.47
68746;SHT31;66104;45.456;11.064;2022-12-18T13:01:54;11.02;62.38
68746;SHT31;66104;45.456;11.064;2022-12-18T13:04:46;11.04;62.06
68746;SHT31;66104;45.456;11.064;2022-12-18T13:07:29;11.06;62.02
68746;SHT31;66104;45.456;11.064;2022-12-18T13:13:11;11.08;62.16
68746;SHT31;66104;45.456;11.064;2022-12-18T13:16:03;11.07;62.12
68746;SHT31;66104;45.456;11.064;2022-12-18T13:18:54;11.05;61.80
68746;SHT31;66104;45.456;11.064;2022-12-18T13:21:33;11.03;61.84
68746;SHT31;66104;45.456;11.064;2022-12-18T13:24:20;11.03;61.71
68746;SHT31;66104;45.456;11.064;2022-12-18T13:27:02;11.03;61.32
68746;SHT31;66104;45.456;11.064;2022-12-18T13:30:46;11.03;60.48
68746;SHT31;66104;45.456;11.064;2022-12-18T13:33:34;11.01;60.42
68746;SHT31;66104;45.456;11.064;2022-12-18T13:36:37;10.96;60.39
68746;SHT31;66104;45.456;11.064;2022-12-18T13:39:24;10.94;60.26
68746;SHT31;66104;45.456;11.064;2022-12-18T13:48:56;10.88;60.13
68746;SHT31;66104;45.456;11.064;2022-12-18T13:51:38;10.88;59.84
68746;SHT31;66104;45.456;11.064;2022-12-18T13:54:21;10.86;59.75
68746;SHT31;66104;45.456;11.064;2022-12-18T13:57:25;10.83;59.72
68746;SHT31;66104;45.456;11.064;2022-12-18T14:00:16;10.82;59.48
68746;SHT31;66104;45.456;11.064;2022-12-18T14:03:15;10.78;59.41
68746;SHT31;66104;45.456;11.064;2022-12-18T14:08:46;10.74;59.60
68746;SHT31;66104;45.456;11.064;2022-12-18T14:11:24;10.72;59.39
68746;SHT31;66104;45.456;11.064;2022-12-18T14:14:02;10.67;59.50
68746;SHT31;66104;45.456;11.064;2022-12-18T14:16:40;10.62;59.63
68746;SHT31;66104;45.456;11.064;2022-12-18T14:19:17;10.58;59.87
68746;SHT31;66104;45.456;11.064;2022-12-18T14:21:56;10.55;59.94
68746;SHT31;66104;45.456;11.064;2022-12-18T14:24:33;10.53;59.82
68746;SHT31;66104;45.456;11.064;2022-12-18T14:27:19;10.49;59.73
68746;SHT31;66104;45.456;11.064;2022-12-18T14:29:58;10.44;59.65
68746;SHT31;66104;45.456;11.064;2022-12-18T14:33:00;10.37;59.38
68746;SHT31;66104;45.456;11.064;2022-12-18T14:35:42;10.30;59.76
68746;SHT31;66104;45.456;11.064;2022-12-18T14:38:32;10.23;59.97
68746;SHT31;66104;45.456;11.064;2022-12-18T14:41:13;10.18;60.38
68746;SHT31;66104;45.456;11.064;2022-12-18T14:43:51;10.11;60.80
68746;SHT31;66104;45.456;11.064;2022-12-18T14:46:36;10.08;60.95
68746;SHT31;66104;45.456;11.064;2022-12-18T14:49:20;10.03;60.94
68746;SHT31;66104;45.456;11.064;2022-12-18T14:52:02;9.98;61.09
68746;SHT31;66104;45.456;11.064;2022-12-18T14:54:49;9.94;61.27
68746;SHT31;66104;45.456;11.064;2022-12-18T14:57:28;9.89;61.41
68746;SHT31;66104;45.456;11.064;2022-12-18T15:00:14;9.83;61.53
68746;SHT31;66104;45.456;11.064;2022-12-18T15:02:54;9.78;61.56
68746;SHT31;66104;45.456;11.064;2022-12-18T15:05:32;9.74;61.71
68746;SHT31;66104;45.456;11.064;2022-12-18T15:11:29;9.64;61.60
68746;SHT31;66104;45.456;11.064;2022-12-18T15:14:28;9.58;62.10
68746;SHT31;66104;45.456;11.064;2022-12-18T15:17:16;9.52;62.39
68746;SHT31;66104;45.456;11.064;2022-12-18T15:19:58;9.47;62.57
68746;SHT31;66104;45.456;11.064;2022-12-18T15:22:41;9.42;62.93
68746;SHT31;66104;45.456;11.064;2022-12-18T15:25:24;9.39;62.98
68746;SHT31;66104;45.456;11.064;2022-12-18T15:28:15;9.36;63.14
68746;SHT31;66104;45.456;11.064;2022-12-18T15:31:04;9.30;63.41
68746;SHT31;66104;45.456;11.064;2022-12-18T15:34:04;9.27;63.60
68746;SHT31;66104;45.456;11.064;2022-12-18T15:36:51;9.23;63.79
68746;SHT31;66104;45.456;11.064;2022-12-18T15:39:29;9.19;63.92
68746;SHT31;66104;45.456;11.064;2022-12-18T15:42:07;9.15;64.12
68746;SHT31;66104;45.456;11.064;2022-12-18T15:45:07;9.11;64.38
68746;SHT31;66104;45.456;11.064;2022-12-18T15:47:47;9.06;65.03
68746;SHT31;66104;45.456;11.064;2022-12-18T15:50:24;9.01;64.98
68746;SHT31;66104;45.456;11.064;2022-12-18T15:53:02;8.91;65.26
68746;SHT31;66104;45.456;11.064;2022-12-18T15:55:40;8.76;65.60
68746;SHT31;66104;45.456;11.064;2022-12-18T15:58:34;8.65;66.06
68746;SHT31;66104;45.456;11.064;2022-12-18T16:01:12;8.57;66.35
68746;SHT31;66104;45.456;11.064;2022-12-18T16:03:50;8.50;66.60
68746;SHT31;66104;45.456;11.064;2022-12-18T16:06:28;8.43;66.67
68746;SHT31;66104;45.456;11.064;2022-12-18T16:09:25;8.35;66.82
68746;SHT31;66104;45.456;11.064;2022-12-18T16:12:02;8.28;67.06
68746;SHT31;66104;45.456;11.064;2022-12-18T16:14:46;8.17;67.27
68746;SHT31;66104;45.456;11.064;2022-12-18T16:17:23;8.05;67.46
68746;SHT31;66104;45.456;11.064;2022-12-18T16:20:00;7.94;67.65
68746;SHT31;66104;45.456;11.064;2022-12-18T16:22:43;7.84;67.71
68746;SHT31;66104;45.456;11.064;2022-12-18T16:25:20;7.75;67.94
68746;SHT31;66104;45.456;11.064;2022-12-18T16:27:58;7.64;68.19
68746;SHT31;66104;45.456;11.064;2022-12-18T16:30:36;7.52;68.38
68746;SHT31;66104;45.456;11.064;2022-12-18T16:33:12;7.44;68.62
68746;SHT31;66104;45.456;11.064;2022-12-18T16:35:52;7.36;68.80
68746;SHT31;66104;45.456;11.064;2022-12-18T16:38:29;7.30;68.95
68746;SHT31;66104;45.456;11.064;2022-12-18T16:41:14;7.28;68.94
68746;SHT31;66104;45.456;11.064;2022-12-18T16:44:03;7.28;68.87
68746;SHT31;66104;45.456;11.064;2022-12-18T16:46:41;7.26;68.79
68746;SHT31;66104;45.456;11.064;2022-12-18T16:49:18;7.23;68.88
68746;SHT31;66104;45.456;11.064;2022-12-18T16:51:56;7.22;68.94
68746;SHT31;66104;45.456;11.064;2022-12-18T16:54:38;7.18;68.96
68746;SHT31;66104;45.456;11.064;2022-12-18T16:57:16;7.14;69.00
68746;SHT31;66104;45.456;11.064;2022-12-18T16:59:54;7.11;69.05
68746;SHT31;66104;45.456;11.064;2022-12-18T17:02:34;7.07;69.11
68746;SHT31;66104;45.456;11.064;2022-12-18T17:05:10;7.03;69.28
68746;SHT31;66104;45.456;11.064;2022-12-18T17:07:49;6.97;69.42
68746;SHT31;66104;45.456;11.064;2022-12-18T17:10:25;6.95;69.43
68746;SHT31;66104;45.456;11.064;2022-12-18T17:13:02;6.93;69.41
68746;SHT31;66104;45.456;11.064;2022-12-18T17:15:39;6.92;69.47
68746;SHT31;66104;45.456;11.064;2022-12-18T17:18:17;6.91;69.58
68746;SHT31;66104;45.456;11.064;2022-12-18T17:20:55;6.89;69.60
68746;SHT31;66104;45.456;11.064;2022-12-18T17:23:51;6.87;69.63
68746;SHT31;66104;45.456;11.064;2022-12-18T17:26:30;6.82;69.66
68746;SHT31;66104;45.456;11.064;2022-12-18T17:29:15;6.79;69.82